Ana Sayfa
METAR-TAF:

METAR-TAF

Havaalanları :

Odessa-Schlemeyer Field

Odessa, Teksas, Amerika Birleşik Devletleri

Enlem: 31-55-17N, Boylam: 102-23-30W, yükseklik: 914 m

Güncel hava durumu gözlemi

Rapor saat 03:53 UTC de 31 dakika önce yapıldı.
Rüzgar batıdan 3 kt
Sıcaklık 2°C
Nem 37%
Basınç 1029 hPa
Görüş mesafesi: 16.1 km
Açık gökyüzü

METAR: KODO 270353Z AUTO 26003KT 10SM CLR 02/M11 A3039 RMK AO2 SLP295 T00171111

Saat: 22:24 (04:24 UTC)


TAF: eksik

4.000'den fazla havaalanı için hava durumu gözlemleri ve tahminleri (METAR ve TAF raporları).

Kullanılabilir istasyonlar harita üzerinde sarı ve kırmızı noktalarla gösterilir.

İstasyonun adını görmek için fareyi noktanın üzerinde gezdirin.

Sonrasında hava gözlem ve tahminlerini görmek için tıklayın.

Haritayı değiştirmek için: yaklaştırmak için siyah artı işaretli yeşil düğmeye ve uzaklaştırmak için de eksi işaretli düğmeye hızla tıklayın; bitişik haritalar için yeşil okları kullanın.


METAR-TAF: